PST,Max TemperatureF,Mean TemperatureF,Min TemperatureF,Max Dew PointF,MeanDew PointF,Min DewpointF,Max Humidity, Mean Humidity, Min Humidity, Max Sea Level PressureIn, Mean Sea Level PressureIn, Min Sea Level PressureIn, Max VisibilityMiles, Mean VisibilityMiles, Min VisibilityMiles, Max Wind SpeedMPH, Mean Wind SpeedMPH, Max Gust SpeedMPH,PrecipitationIn, CloudCover, Events, WindDirDegrees
2012-11-1,73,62,51,54,52,50,100,74,47,30.03,29.98,29.91,10,4,0,12,3,16,0.00,5,Fog,272
2012-11-2,72,62,52,53,50,46,89,65,41,30.01,29.95,29.89,10,6,3,9,2,13,0.00,2,,266
2012-11-3,84,67,49,50,46,36,89,54,18,30.05,29.99,29.93,10,7,3,12,3,16,0.00,0,,323
2012-11-4,93,72,51,46,31,19,62,35,8,30.11,30.04,29.97,10,10,10,9,4,15,0.00,0,,53
2012-11-5,95,75,55,38,32,25,36,22,8,30.12,30.03,29.95,10,10,10,12,4,18,0.00,0,,46
2012-11-6,88,71,53,47,40,29,51,32,12,30.06,30.01,29.95,10,10,10,12,3,16,0.00,0,,307
2012-11-7,79,66,53,55,49,44,83,58,33,30.04,29.97,29.91,10,9,5,12,3,16,0.00,0,,282
2012-11-8,68,61,54,57,54,50,93,75,56,30.05,29.92,29.85,10,7,2,13,5,17,T,7,Rain,274
2012-11-9,62,57,52,52,44,37,93,68,42,29.93,29.87,29.83,10,10,10,20,9,24,T,5,Rain,240
2012-11-10,62,53,44,41,35,26,83,54,25,30.13,30.03,29.96,10,10,10,20,5,26,0.00,2,,254
2012-11-11,68,53,37,34,21,13,70,42,14,30.29,30.22,30.14,10,10,10,10,5,14,0.00,0,,61
2012-11-12,74,58,42,24,10,1,45,26,6,30.26,30.16,30.07,10,10,10,16,7,29,0.00,0,,61
2012-11-13,84,64,44,28,16,7,37,22,6,30.10,30.04,29.98,10,10,10,13,6,18,0.00,0,,69
2012-11-14,82,65,48,40,27,10,42,25,7,30.06,30.01,29.94,10,10,10,10,3,15,0.00,3,,57
2012-11-15,72,62,51,45,35,27,59,39,19,30.08,30.05,29.99,10,10,10,7,2,9,0.00,5,,291
2012-11-16,73,63,53,53,43,33,66,46,25,30.09,30.04,29.98,10,10,9,8,3,10,T,7,Rain,317
2012-11-17,69,63,57,57,55,52,93,75,57,30.11,30.06,30.01,10,8,2,8,2,12,0.04,8,Rain,264
2012-11-18,71,63,55,57,52,49,93,70,47,30.16,30.11,30.05,10,9,2,13,2,17,0.01,4,Rain,260
2012-11-19,71,59,47,51,48,46,93,69,44,30.23,30.17,30.12,10,10,7,7,1,10,0.00,0,,278
2012-11-20,76,61,46,51,46,40,96,62,27,30.14,30.07,29.99,10,10,8,12,3,15,0.00,0,,19
2012-11-21,72,60,47,50,47,44,93,66,38,30.09,30.03,29.98,10,9,7,8,2,12,0.00,0,,299
2012-11-22,78,63,48,51,48,44,86,60,33,30.09,30.05,29.99,10,8,6,9,2,13,0.00,0,,37
2012-11-23,87,69,50,43,34,27,72,42,11,30.13,30.08,30.03,10,10,10,9,5,13,0.00,0,,59
2012-11-24,89,70,51,45,35,27,50,31,11,30.07,29.98,29.89,10,10,10,9,2,12,0.00,0,,56
2012-11-25,77,63,49,53,45,36,66,47,27,29.98,29.90,29.84,10,8,0,9,2,13,0.00,0,Fog,277
2012-11-26,70,61,52,54,51,48,100,76,51,30.09,30.03,29.96,10,4,0,9,2,13,0.00,5,Fog,233
2012-11-27,76,61,46,52,48,39,93,60,27,30.16,30.08,29.99,10,6,3,6,1,8,0.01,3,,265
2012-11-28,67,58,49,52,50,48,96,76,56,30.21,30.14,30.09,10,5,2,9,3,14,0.00,7,,110
2012-11-29,67,62,56,59,56,52,93,83,73,30.22,30.16,30.12,10,8,2,9,2,13,0.09,7,Rain,324
2012-11-30,69,65,60,61,60,57,97,88,78,30.16,30.12,30.04,10,7,2,9,1,17,0.07,7,Rain,275